createdAt,value
2023-02-22T00:01:19.470Z,100.00
2023-02-22T00:03:49.765Z,100.00
2023-02-22T00:06:20.398Z,100.00
2023-02-22T00:08:50.782Z,100.00
2023-02-22T00:11:20.668Z,100.00
2023-02-22T00:13:50.704Z,100.00
2023-02-22T00:16:23.837Z,100.00
2023-02-22T00:18:53.303Z,100.00
2023-02-22T00:21:22.744Z,100.00
2023-02-22T00:23:54.779Z,100.00
2023-02-22T00:26:24.703Z,100.00
2023-02-22T00:28:55.322Z,100.00
2023-02-22T00:31:27.934Z,100.00
2023-02-22T00:33:57.196Z,100.00
2023-02-22T00:36:26.250Z,100.00
2023-02-22T00:38:55.804Z,100.00
2023-02-22T00:41:25.198Z,100.00
2023-02-22T00:43:53.889Z,100.00
2023-02-22T00:46:23.237Z,100.00
2023-02-22T00:48:56.754Z,100.00
2023-02-22T00:51:28.884Z,100.00
2023-02-22T00:53:58.274Z,100.00
2023-02-22T00:56:27.519Z,100.00
2023-02-22T00:58:56.782Z,100.00
2023-02-22T01:01:25.922Z,100.00
2023-02-22T01:03:56.679Z,100.00
2023-02-22T01:06:25.875Z,100.00
2023-02-22T01:08:55.051Z,100.00
2023-02-22T01:11:26.474Z,100.00
2023-02-22T01:13:55.536Z,100.00
2023-02-22T01:16:24.874Z,100.00
2023-02-22T01:18:54.036Z,100.00
2023-02-22T01:21:24.955Z,100.00
2023-02-22T01:23:56.307Z,100.00
2023-02-22T01:26:26.426Z,100.00
2023-02-22T01:28:55.099Z,100.00
2023-02-22T01:31:25.287Z,100.00
2023-02-22T01:33:54.504Z,100.00
2023-02-22T01:36:25.244Z,100.00
2023-02-22T01:38:54.295Z,100.00
2023-02-22T01:41:23.384Z,100.00
2023-02-22T01:43:52.093Z,100.00
2023-02-22T01:46:23.411Z,100.00
2023-02-22T01:48:54.918Z,100.00
2023-02-22T01:51:37.662Z,100.00
2023-02-22T01:54:09.578Z,100.00
2023-02-22T01:56:40.342Z,100.00
2023-02-22T01:59:12.611Z,100.00
2023-02-22T02:01:44.753Z,100.00
2023-02-22T02:04:16.843Z,100.00
2023-02-22T02:06:47.645Z,100.00
2023-02-22T02:09:22.087Z,100.00
2023-02-22T02:11:51.438Z,100.00
2023-02-22T02:14:23.704Z,100.00
2023-02-22T02:16:56.295Z,100.00
2023-02-22T02:19:35.108Z,100.00
2023-02-22T02:22:25.810Z,100.00
2023-02-22T02:25:45.314Z,100.00
2023-02-22T02:28:56.264Z,100.00
2023-02-22T02:31:53.433Z,100.00
2023-02-22T02:34:29.122Z,100.00
2023-02-22T02:37:03.024Z,100.00
2023-02-22T02:39:36.682Z,100.00
2023-02-22T02:42:09.307Z,100.00
2023-02-22T02:44:45.425Z,100.00
2023-02-22T02:47:17.180Z,100.00
2023-02-22T02:49:51.567Z,100.00
2023-02-22T02:52:23.396Z,100.00
2023-02-22T02:54:53.196Z,100.00
2023-02-22T02:57:22.266Z,100.00
2023-02-22T02:59:51.890Z,100.00
2023-02-22T03:02:36.702Z,100.00
2023-02-22T03:05:17.829Z,100.00
2023-02-22T03:07:52.188Z,100.00
2023-02-22T03:10:42.230Z,100.00
2023-02-22T03:13:11.827Z,100.00
2023-02-22T03:15:48.134Z,100.00
2023-02-22T03:18:23.000Z,100.00
2023-02-22T03:21:00.030Z,100.00
2023-02-22T03:23:35.414Z,100.00
2023-02-22T03:26:07.362Z,100.00
2023-02-22T03:28:41.285Z,100.00
2023-02-22T03:31:16.497Z,100.00
2023-02-22T03:33:49.181Z,100.00
2023-02-22T03:36:25.072Z,100.00
2023-02-22T03:38:57.905Z,100.00
2023-02-22T03:41:27.676Z,100.00
2023-02-22T03:44:01.140Z,100.00
2023-02-22T03:46:31.006Z,100.00
2023-02-22T03:49:02.090Z,100.00
2023-02-22T03:51:36.981Z,100.00
2023-02-22T03:54:06.668Z,100.00
2023-02-22T03:56:47.457Z,100.00
2023-02-22T03:59:17.245Z,100.00
2023-02-22T04:01:46.230Z,100.00
2023-02-22T04:04:15.636Z,100.00
2023-02-22T04:06:48.114Z,100.00
2023-02-22T04:09:17.514Z,100.00
2023-02-22T04:11:47.061Z,100.00
2023-02-22T04:14:16.819Z,100.00
2023-02-22T04:16:45.624Z,100.00
2023-02-22T04:19:14.720Z,100.00
2023-02-22T04:21:43.778Z,100.00
2023-02-22T04:24:22.383Z,100.00
2023-02-22T04:26:51.521Z,100.00
2023-02-22T04:29:21.378Z,100.00
2023-02-22T04:31:50.733Z,100.00
2023-02-22T04:34:20.077Z,100.00
2023-02-22T04:36:49.319Z,100.00
2023-02-22T04:39:18.797Z,100.00
2023-02-22T04:41:49.380Z,100.00
2023-02-22T04:44:18.713Z,100.00
2023-02-22T04:46:47.884Z,100.00
2023-02-22T04:49:18.398Z,100.00
2023-02-22T04:51:49.202Z,100.00
2023-02-22T04:54:20.592Z,100.00
2023-02-22T04:56:52.577Z,100.00
2023-02-22T04:59:21.652Z,100.00
2023-02-22T05:01:56.255Z,100.00
2023-02-22T05:04:25.394Z,100.00
2023-02-22T05:06:55.147Z,100.00
2023-02-22T05:09:24.291Z,100.00
2023-02-22T05:11:54.833Z,100.00
2023-02-22T05:14:26.725Z,100.00
2023-02-22T05:16:56.411Z,100.00
2023-02-22T05:19:25.907Z,100.00
2023-02-22T05:21:56.522Z,100.00
2023-02-22T05:24:25.543Z,100.00
2023-02-22T05:26:56.400Z,100.00
2023-02-22T05:29:25.498Z,100.00
2023-02-22T05:31:54.298Z,100.00
2023-02-22T05:34:24.071Z,100.00
2023-02-22T05:36:53.280Z,100.00
2023-02-22T05:39:22.380Z,100.00
2023-02-22T05:41:51.600Z,100.00
2023-02-22T05:44:22.624Z,100.00
2023-02-22T05:46:51.401Z,100.00
2023-02-22T05:49:20.633Z,100.00
2023-02-22T05:51:49.822Z,100.00
2023-02-22T05:54:18.949Z,100.00
2023-02-22T05:56:48.132Z,100.00
2023-02-22T05:59:17.509Z,100.00
2023-02-22T06:01:47.822Z,100.00
2023-02-22T06:04:16.856Z,100.00
2023-02-22T06:06:45.932Z,100.00
2023-02-22T06:09:14.905Z,100.00
2023-02-22T06:11:43.952Z,100.00
2023-02-22T06:14:12.971Z,100.00
2023-02-22T06:16:41.753Z,100.00
2023-02-22T06:19:12.350Z,100.00
2023-02-22T06:21:42.114Z,100.00
2023-02-22T06:24:12.103Z,100.00
2023-02-22T06:26:41.292Z,100.00
2023-02-22T06:29:10.616Z,100.00
2023-02-22T06:31:39.374Z,100.00
2023-02-22T06:34:08.534Z,100.00
2023-02-22T06:36:39.871Z,100.00
2023-02-22T06:39:11.212Z,100.00
2023-02-22T06:41:41.954Z,100.00
2023-02-22T06:44:11.980Z,100.00
2023-02-22T06:46:41.401Z,100.00
2023-02-22T06:49:10.482Z,100.00
2023-02-22T06:51:41.047Z,100.00
2023-02-22T06:54:10.787Z,100.00
2023-02-22T06:56:39.976Z,100.00
2023-02-22T06:59:08.976Z,100.00
2023-02-22T07:01:37.959Z,100.00
2023-02-22T07:04:10.229Z,100.00
2023-02-22T07:06:41.225Z,100.00
2023-02-22T07:09:10.582Z,100.00
2023-02-22T07:11:40.277Z,100.00
2023-02-22T07:14:09.405Z,100.00
2023-02-22T07:16:38.097Z,100.00
2023-02-22T07:19:07.252Z,100.00
2023-02-22T07:21:36.311Z,100.00
2023-02-22T07:24:07.784Z,100.00
2023-02-22T07:26:40.822Z,100.00
2023-02-22T07:29:11.415Z,100.00
2023-02-22T07:31:40.233Z,100.00
2023-02-22T07:34:09.236Z,100.00
2023-02-22T07:36:38.303Z,100.00
2023-02-22T07:39:08.984Z,100.00
2023-02-22T07:41:39.087Z,100.00
2023-02-22T07:44:16.745Z,100.00
2023-02-22T07:46:48.808Z,100.00
2023-02-22T07:49:18.186Z,100.00
2023-02-22T07:51:47.167Z,98.49
2023-02-22T07:54:17.900Z,97.27
2023-02-22T07:56:47.597Z,96.81
2023-02-22T07:59:16.956Z,95.88
2023-02-22T08:01:45.638Z,97.75
2023-02-22T08:04:14.731Z,95.98
2023-02-22T08:06:46.446Z,94.03
2023-02-22T08:09:17.529Z,90.75
2023-02-22T08:11:46.593Z,92.30
2023-02-22T08:14:17.673Z,92.58
2023-02-22T08:16:46.400Z,94.02
2023-02-22T08:19:15.514Z,93.54
2023-02-22T08:21:44.772Z,90.52
2023-02-22T08:24:14.255Z,86.11
2023-02-22T08:26:48.042Z,87.44
2023-02-22T08:29:17.137Z,85.99
2023-02-22T08:31:54.093Z,87.25
2023-02-22T08:34:24.912Z,83.31
2023-02-22T08:36:54.105Z,82.49
2023-02-22T08:39:23.277Z,80.24
2023-02-22T08:41:54.014Z,80.83
2023-02-22T08:44:24.419Z,77.48
2023-02-22T08:46:53.104Z,79.24
2023-02-22T08:49:22.217Z,75.86
2023-02-22T08:51:51.324Z,73.56
2023-02-22T08:54:20.499Z,74.13
2023-02-22T08:56:49.731Z,78.46
2023-02-22T08:59:20.441Z,77.18
2023-02-22T09:01:48.866Z,79.26
2023-02-22T09:04:18.311Z,78.49
2023-02-22T09:06:51.999Z,80.02
2023-02-22T09:09:21.655Z,78.75
2023-02-22T09:11:52.947Z,80.51
2023-02-22T09:14:23.828Z,80.23
2023-02-22T09:16:52.560Z,79.14
2023-02-22T09:19:21.805Z,79.68
2023-02-22T09:21:54.626Z,78.39
2023-02-22T09:24:24.127Z,72.22
2023-02-22T09:26:54.823Z,71.73
2023-02-22T09:29:26.636Z,68.50
2023-02-22T09:31:56.868Z,68.68
2023-02-22T09:34:29.793Z,66.05
2023-02-22T09:36:59.559Z,65.18
2023-02-22T09:39:28.651Z,66.47
2023-02-22T09:42:13.467Z,70.82
2023-02-22T09:44:48.232Z,74.00
2023-02-22T09:47:19.585Z,74.52
2023-02-22T09:49:58.733Z,75.32
2023-02-22T09:52:30.444Z,76.45
2023-02-22T09:55:07.232Z,75.76
2023-02-22T09:57:40.742Z,79.40
2023-02-22T10:00:18.322Z,78.15
2023-02-22T10:02:52.535Z,78.09
2023-02-22T10:05:27.696Z,79.66
2023-02-22T10:08:01.188Z,84.42
2023-02-22T10:10:35.724Z,84.44
2023-02-22T10:13:10.629Z,85.52
2023-02-22T10:15:48.892Z,84.57
2023-02-22T10:18:45.078Z,84.80
2023-02-22T10:21:23.612Z,85.35
2023-02-22T10:23:59.240Z,85.20
2023-02-22T10:26:30.176Z,85.81
2023-02-22T10:29:02.882Z,85.81
2023-02-22T10:31:35.480Z,84.98
2023-02-22T10:34:07.246Z,85.46
2023-02-22T10:36:39.229Z,88.72
2023-02-22T10:39:17.986Z,87.73
2023-02-22T10:41:51.430Z,90.00
2023-02-22T10:44:20.468Z,94.06
2023-02-22T10:46:50.889Z,93.69
2023-02-22T10:49:22.730Z,91.55
2023-02-22T10:52:01.129Z,90.45
2023-02-22T10:54:33.622Z,90.63
2023-02-22T10:57:04.104Z,88.79
2023-02-22T10:59:35.269Z,88.09
2023-02-22T11:02:14.964Z,87.37
2023-02-22T11:04:49.810Z,82.44
2023-02-22T11:07:25.185Z,80.44
2023-02-22T11:09:56.077Z,78.40
2023-02-22T11:12:32.498Z,77.00
2023-02-22T11:15:29.589Z,75.08
2023-02-22T11:18:02.212Z,72.45
2023-02-22T11:20:34.938Z,69.76
2023-02-22T11:23:05.788Z,71.00
2023-02-22T11:25:36.840Z,68.48
2023-02-22T11:28:10.678Z,69.56
2023-02-22T11:30:40.070Z,72.20
2023-02-22T11:33:23.701Z,73.24
2023-02-22T11:35:54.078Z,72.79
2023-02-22T11:38:24.415Z,70.43
2023-02-22T11:41:09.328Z,70.06
2023-02-22T11:43:38.474Z,71.20
2023-02-22T11:46:10.875Z,69.91
2023-02-22T11:48:45.003Z,71.42
2023-02-22T11:51:19.137Z,67.34
2023-02-22T11:54:12.793Z,67.98
2023-02-22T11:56:45.072Z,66.00
2023-02-22T11:59:24.721Z,66.65
2023-02-22T12:01:56.369Z,65.31
2023-02-22T12:04:42.065Z,66.01
2023-02-22T12:07:30.169Z,64.45
2023-02-22T12:10:05.585Z,66.32
2023-02-22T12:12:40.479Z,62.12
2023-02-22T12:15:13.997Z,60.26
2023-02-22T12:18:00.011Z,61.86
2023-02-22T12:20:37.356Z,63.16
2023-02-22T12:23:14.617Z,60.71
2023-02-22T12:25:52.132Z,59.79
2023-02-22T12:28:25.226Z,60.91
2023-02-22T12:30:57.988Z,59.58
2023-02-22T12:33:30.290Z,59.91
2023-02-22T12:36:01.814Z,59.04
2023-02-22T12:38:33.983Z,59.14
2023-02-22T12:41:08.964Z,58.15
2023-02-22T12:43:42.262Z,60.14
2023-02-22T12:46:13.772Z,61.58
2023-02-22T12:48:46.238Z,59.91
2023-02-22T12:51:28.131Z,60.63
2023-02-22T12:54:03.551Z,59.86
2023-02-22T12:56:35.349Z,59.62
2023-02-22T12:59:09.457Z,61.01
2023-02-22T13:01:40.514Z,60.90
2023-02-22T13:04:20.671Z,59.58
2023-02-22T13:07:18.299Z,60.24
2023-02-22T13:10:19.092Z,60.74
2023-02-22T13:12:55.142Z,62.03
2023-02-22T13:15:29.427Z,60.42
2023-02-22T13:18:04.612Z,60.35
2023-02-22T13:20:36.616Z,59.73
2023-02-22T13:23:12.397Z,60.56
2023-02-22T13:25:45.818Z,60.77
2023-02-22T13:28:25.356Z,61.78
2023-02-22T13:31:06.315Z,62.72
2023-02-22T13:33:47.198Z,62.77
2023-02-22T13:36:24.467Z,62.42
2023-02-22T13:39:36.184Z,62.55
2023-02-22T13:42:31.237Z,61.48
2023-02-22T13:45:44.665Z,62.75
2023-02-22T13:48:23.388Z,63.29
2023-02-22T13:51:03.085Z,63.99
2023-02-22T13:53:36.306Z,64.48
2023-02-22T13:56:05.731Z,62.97
2023-02-22T13:58:49.482Z,63.92
2023-02-22T14:01:45.731Z,63.55
2023-02-22T14:04:36.507Z,63.84
2023-02-22T14:07:56.241Z,64.22
2023-02-22T14:10:51.347Z,63.93
2023-02-22T14:13:22.658Z,64.99
2023-02-22T14:16:22.143Z,65.17
2023-02-22T14:19:06.571Z,66.28
2023-02-22T14:21:36.417Z,65.52
2023-02-22T14:24:11.353Z,66.03
2023-02-22T14:26:41.814Z,65.63
2023-02-22T14:29:18.578Z,65.86
2023-02-22T14:32:06.585Z,66.08
2023-02-22T14:34:58.276Z,66.48
2023-02-22T14:37:30.493Z,66.96
2023-02-22T14:40:02.372Z,68.71
2023-02-22T14:42:34.597Z,67.37
2023-02-22T14:45:08.431Z,68.48
2023-02-22T14:47:44.027Z,68.12
2023-02-22T14:50:16.855Z,65.94
2023-02-22T14:52:47.750Z,67.78
2023-02-22T14:55:20.146Z,67.26
2023-02-22T14:57:56.992Z,67.28
2023-02-22T15:00:36.390Z,67.64
2023-02-22T15:03:07.000Z,66.58
2023-02-22T15:05:38.624Z,66.92
2023-02-22T15:08:09.773Z,67.09
2023-02-22T15:10:44.074Z,67.62
2023-02-22T15:13:20.142Z,67.33
2023-02-22T15:15:50.487Z,66.96
2023-02-22T15:18:25.184Z,68.37
2023-02-22T15:20:58.269Z,67.73
2023-02-22T15:23:33.440Z,68.74
2023-02-22T15:26:02.287Z,69.11
2023-02-22T15:28:32.444Z,70.07
2023-02-22T15:31:26.105Z,68.63
2023-02-22T15:33:58.002Z,67.41
2023-02-22T15:36:31.090Z,65.63
2023-02-22T15:39:00.505Z,66.90
2023-02-22T15:41:33.091Z,66.08
2023-02-22T15:44:17.564Z,65.92
2023-02-22T15:46:54.513Z,67.07
2023-02-22T15:49:26.023Z,66.72
2023-02-22T15:52:09.665Z,67.43
2023-02-22T15:54:41.245Z,66.49
2023-02-22T15:57:10.729Z,66.37
2023-02-22T15:59:46.245Z,67.73
2023-02-22T16:02:37.179Z,66.47
2023-02-22T16:05:10.275Z,67.57
2023-02-22T16:07:45.431Z,67.82
2023-02-22T16:10:30.386Z,68.21
2023-02-22T16:13:07.224Z,68.66
2023-02-22T16:15:37.097Z,68.75
2023-02-22T16:18:19.319Z,68.49
2023-02-22T16:20:59.896Z,67.18
2023-02-22T16:23:30.921Z,68.85
2023-02-22T16:26:05.473Z,69.50
2023-02-22T16:28:36.067Z,70.51
2023-02-22T16:31:05.649Z,70.95
2023-02-22T16:33:35.004Z,71.15
2023-02-22T16:36:09.526Z,70.45
2023-02-22T16:38:39.813Z,70.54
2023-02-22T16:41:09.155Z,70.93
2023-02-22T16:43:38.081Z,71.40
2023-02-22T16:46:07.515Z,71.44
2023-02-22T16:48:38.433Z,72.20
2023-02-22T16:51:20.024Z,72.09
2023-02-22T16:53:50.130Z,71.86
2023-02-22T16:56:21.532Z,70.70
2023-02-22T16:58:51.141Z,71.62
2023-02-22T17:01:23.428Z,71.28
2023-02-22T17:03:54.817Z,70.91
2023-02-22T17:06:29.288Z,71.88
2023-02-22T17:08:58.539Z,71.16
2023-02-22T17:11:28.015Z,70.78
2023-02-22T17:13:56.699Z,70.25
2023-02-22T17:16:25.827Z,69.38
2023-02-22T17:18:54.931Z,69.19
2023-02-22T17:21:24.088Z,69.02
2023-02-22T17:23:54.586Z,69.84
2023-02-22T17:26:27.297Z,70.38
2023-02-22T17:28:55.978Z,71.22
2023-02-22T17:31:27.870Z,70.55
2023-02-22T17:33:58.046Z,70.31
2023-02-22T17:36:27.324Z,70.25
2023-02-22T17:38:58.068Z,70.53
2023-02-22T17:41:27.471Z,69.10
2023-02-22T17:43:58.183Z,70.02
2023-02-22T17:46:27.567Z,70.56
2023-02-22T17:48:56.850Z,70.14
2023-02-22T17:51:27.621Z,69.41
2023-02-22T17:53:58.404Z,69.86
2023-02-22T17:56:27.599Z,69.64
2023-02-22T17:58:56.947Z,70.01
2023-02-22T18:01:27.777Z,70.31
2023-02-22T18:03:58.820Z,69.62
2023-02-22T18:06:32.910Z,70.33
2023-02-22T18:09:10.449Z,71.12
2023-02-22T18:11:40.951Z,67.92
2023-02-22T18:14:12.341Z,68.31
2023-02-22T18:16:41.681Z,67.93
2023-02-22T18:19:10.972Z,68.73
2023-02-22T18:21:40.124Z,68.00
2023-02-22T18:24:10.829Z,67.92
2023-02-22T18:26:40.083Z,67.97
2023-02-22T18:29:12.389Z,69.18
2023-02-22T18:31:41.353Z,69.89
2023-02-22T18:34:13.086Z,69.04
2023-02-22T18:36:43.104Z,68.04
2023-02-22T18:39:13.716Z,68.80
2023-02-22T18:41:42.953Z,68.10
2023-02-22T18:44:12.037Z,68.55
2023-02-22T18:46:40.933Z,68.23
2023-02-22T18:49:12.419Z,68.68
2023-02-22T18:51:43.689Z,68.47
2023-02-22T18:54:14.838Z,67.93
2023-02-22T18:56:44.027Z,68.27
2023-02-22T18:59:13.728Z,69.16
2023-02-22T19:01:48.974Z,69.69
2023-02-22T19:04:19.818Z,68.59
2023-02-22T19:06:50.179Z,68.97
2023-02-22T19:09:20.931Z,69.00
2023-02-22T19:11:51.101Z,68.97
2023-02-22T19:14:20.119Z,68.81
2023-02-22T19:16:53.137Z,69.70
2023-02-22T19:19:24.860Z,70.43
2023-02-22T19:21:56.429Z,69.73
2023-02-22T19:24:27.071Z,70.15
2023-02-22T19:26:59.999Z,69.47
2023-02-22T19:29:31.287Z,69.66
2023-02-22T19:32:00.639Z,70.05
2023-02-22T19:34:31.364Z,68.59
2023-02-22T19:37:01.894Z,68.47
2023-02-22T19:39:35.132Z,69.68
2023-02-22T19:42:06.120Z,69.42
2023-02-22T19:44:35.277Z,68.95
2023-02-22T19:47:09.114Z,68.54
2023-02-22T19:49:41.137Z,69.66
2023-02-22T19:52:10.295Z,70.35
2023-02-22T19:54:40.870Z,70.08
2023-02-22T19:57:10.481Z,69.93
2023-02-22T19:59:39.667Z,68.98
2023-02-22T20:02:11.918Z,68.67
2023-02-22T20:04:40.808Z,69.36
2023-02-22T20:07:10.082Z,67.21
2023-02-22T20:09:40.696Z,66.25
2023-02-22T20:12:10.174Z,66.20
2023-02-22T20:14:39.431Z,65.20
2023-02-22T20:17:10.330Z,66.33
2023-02-22T20:19:40.659Z,67.12
2023-02-22T20:22:11.364Z,66.58
2023-02-22T20:24:42.162Z,67.17
2023-02-22T20:27:13.054Z,67.52
2023-02-22T20:29:42.334Z,66.59
2023-02-22T20:32:15.512Z,66.55
2023-02-22T20:34:48.763Z,66.42
2023-02-22T20:37:18.449Z,63.59
2023-02-22T20:39:48.921Z,62.60
2023-02-22T20:42:18.051Z,62.41
2023-02-22T20:44:47.152Z,62.94
2023-02-22T20:47:16.453Z,63.02
2023-02-22T20:49:45.251Z,63.14
2023-02-22T20:52:14.405Z,62.97
2023-02-22T20:54:43.587Z,63.63
2023-02-22T20:57:14.151Z,63.08
2023-02-22T20:59:44.475Z,62.68
2023-02-22T21:02:13.187Z,61.66
2023-02-22T21:04:41.987Z,62.37
2023-02-22T21:07:11.105Z,62.79
2023-02-22T21:09:40.512Z,63.19
2023-02-22T21:12:13.693Z,63.27
2023-02-22T21:14:44.943Z,63.51
2023-02-22T21:17:14.002Z,63.85
2023-02-22T21:19:42.736Z,64.18
2023-02-22T21:22:11.831Z,66.28
2023-02-22T21:24:41.076Z,66.57
2023-02-22T21:27:12.328Z,67.02
2023-02-22T21:29:41.410Z,67.55
2023-02-22T21:32:13.368Z,66.88
2023-02-22T21:34:42.275Z,65.62
2023-02-22T21:37:11.500Z,65.75
2023-02-22T21:39:40.827Z,65.10
2023-02-22T21:42:09.859Z,65.05
2023-02-22T21:44:39.221Z,65.64
2023-02-22T21:47:08.442Z,66.12
2023-02-22T21:49:39.070Z,66.00
2023-02-22T21:52:09.045Z,67.11
2023-02-22T21:54:38.356Z,66.36
2023-02-22T21:57:07.511Z,66.16
2023-02-22T21:59:36.730Z,65.63
2023-02-22T22:02:06.258Z,64.97
2023-02-22T22:04:35.239Z,65.07
2023-02-22T22:07:05.907Z,64.76
2023-02-22T22:09:37.833Z,66.12
2023-02-22T22:12:10.205Z,65.25
2023-02-22T22:14:40.360Z,64.75
2023-02-22T22:17:09.757Z,64.98
2023-02-22T22:19:40.620Z,67.13
2023-02-22T22:22:12.517Z,66.84
2023-02-22T22:24:45.983Z,66.95
2023-02-22T22:27:15.190Z,66.00
2023-02-22T22:29:45.528Z,65.71
2023-02-22T22:32:16.371Z,65.47
2023-02-22T22:34:45.221Z,65.65
2023-02-22T22:37:16.643Z,65.31
2023-02-22T22:39:45.667Z,65.43
2023-02-22T22:42:14.779Z,68.91
2023-02-22T22:44:43.786Z,70.83
2023-02-22T22:47:13.742Z,72.22
2023-02-22T22:49:42.801Z,71.07
2023-02-22T22:52:14.013Z,69.06
2023-02-22T22:54:45.221Z,72.47
2023-02-22T22:57:14.736Z,70.55
2023-02-22T22:59:43.735Z,69.83
2023-02-22T23:02:12.882Z,73.43
2023-02-22T23:04:41.662Z,70.36
2023-02-22T23:07:11.617Z,69.08
2023-02-22T23:09:42.555Z,68.26
2023-02-22T23:12:16.945Z,68.38
2023-02-22T23:14:47.188Z,67.11
2023-02-22T23:17:31.189Z,69.06
2023-02-22T23:20:00.244Z,71.51
2023-02-22T23:22:29.320Z,71.21
2023-02-22T23:25:00.627Z,70.93
2023-02-22T23:27:31.445Z,70.42
2023-02-22T23:30:00.683Z,69.58
2023-02-22T23:32:30.311Z,68.17
2023-02-22T23:35:01.913Z,68.79
2023-02-22T23:37:35.505Z,68.01
2023-02-22T23:40:16.493Z,68.64
2023-02-22T23:42:50.347Z,68.63
2023-02-22T23:45:28.710Z,68.91
2023-02-22T23:48:01.759Z,69.80
2023-02-22T23:50:36.400Z,75.61
2023-02-22T23:53:06.108Z,78.83
2023-02-22T23:55:39.214Z,81.24
2023-02-22T23:58:09.866Z,78.98
